createdAt,value
2023-04-16T00:03:56.589Z,102147.66
2023-04-16T00:09:18.712Z,102153.63
2023-04-16T00:14:40.574Z,102140.84
2023-04-16T00:20:02.716Z,102144.69
2023-04-16T00:25:24.532Z,102146.81
2023-04-16T00:30:46.389Z,102151.53
2023-04-16T00:36:08.243Z,102148.97
2023-04-16T00:41:30.129Z,102151.75
2023-04-16T00:46:52.081Z,102148.34
2023-04-16T00:52:13.937Z,102138.31
2023-04-16T00:57:35.796Z,102151.53
2023-04-16T01:02:57.712Z,102154.53
2023-04-16T01:08:21.737Z,102157.50
2023-04-16T01:13:43.639Z,102152.19
2023-04-16T01:19:05.675Z,102147.72
2023-04-16T01:24:27.558Z,102151.56
2023-04-16T01:29:49.519Z,102160.09
2023-04-16T01:35:11.286Z,102156.47
2023-04-16T01:40:33.089Z,102156.69
2023-04-16T01:46:11.449Z,102157.75
2023-04-16T01:51:33.674Z,102146.03
2023-04-16T01:56:55.882Z,102163.94
2023-04-16T02:02:18.243Z,102155.81
2023-04-16T02:07:40.354Z,102166.91
2023-04-16T02:13:02.301Z,102156.94
2023-04-16T02:18:24.147Z,102174.63
2023-04-16T02:23:48.148Z,102162.66
2023-04-16T02:29:10.094Z,102166.50
2023-04-16T02:34:33.970Z,102166.50
2023-04-16T02:39:56.124Z,102167.56
2023-04-16T02:45:18.152Z,102163.09
2023-04-16T02:50:40.199Z,102165.25
2023-04-16T02:56:02.204Z,102169.94
2023-04-16T03:01:24.068Z,102167.38
2023-04-16T03:06:45.902Z,102166.50
2023-04-16T03:12:07.690Z,102173.13
2023-04-16T03:17:29.599Z,102172.28
2023-04-16T03:22:52.508Z,102176.94
2023-04-16T03:28:15.059Z,102176.34
2023-04-16T03:33:37.360Z,102176.53
2023-04-16T03:38:59.718Z,102172.94
2023-04-16T03:44:21.638Z,102181.44
2023-04-16T03:49:43.649Z,102179.75
2023-04-16T03:55:06.046Z,102170.97
2023-04-16T04:00:28.948Z,102179.28
2023-04-16T04:05:51.021Z,102181.41
2023-04-16T04:11:12.791Z,102181.84
2023-04-16T04:16:35.038Z,102177.16
2023-04-16T04:21:56.920Z,102179.28
2023-04-16T04:27:18.709Z,102169.50
2023-04-16T04:32:40.785Z,102181.44
2023-04-16T04:38:03.316Z,102187.16
2023-04-16T04:43:25.276Z,102192.06
2023-04-16T04:48:47.121Z,102189.53
2023-04-16T04:54:08.966Z,102200.59
2023-04-16T04:59:31.032Z,102196.34
2023-04-16T05:04:52.804Z,102206.56
2023-04-16T05:10:14.928Z,102216.78
2023-04-16T05:15:36.866Z,102210.38
2023-04-16T05:20:58.774Z,102211.44
2023-04-16T05:26:21.032Z,102211.69
2023-04-16T05:31:42.934Z,102221.03
2023-04-16T05:37:04.739Z,102228.50
2023-04-16T05:42:26.560Z,102223.59
2023-04-16T05:47:48.376Z,102226.59
2023-04-16T05:53:10.259Z,102229.81
2023-04-16T05:58:32.147Z,102233.41
2023-04-16T06:03:54.155Z,102231.22
2023-04-16T06:09:16.182Z,102234.63
2023-04-16T06:14:37.942Z,102231.59
2023-04-16T06:20:00.231Z,102237.78
2023-04-16T06:25:21.984Z,102246.53
2023-04-16T06:30:44.727Z,102235.22
2023-04-16T06:36:06.910Z,102252.13
2023-04-16T06:41:28.987Z,102264.06
2023-04-16T06:46:51.351Z,102264.09
2023-04-16T06:52:13.364Z,102272.44
2023-04-16T06:57:36.933Z,102275.22
2023-04-16T07:03:01.580Z,102274.34
2023-04-16T07:08:23.650Z,102282.69
2023-04-16T07:13:45.415Z,102279.06
2023-04-16T07:19:07.334Z,102291.03
2023-04-16T07:24:29.172Z,102293.56
2023-04-16T07:29:51.140Z,102288.44
2023-04-16T07:35:13.131Z,102292.09
2023-04-16T07:40:35.793Z,102300.19
2023-04-16T07:45:57.627Z,102294.88
2023-04-16T07:51:19.645Z,102311.50
2023-04-16T07:56:41.465Z,102307.63
2023-04-16T08:02:05.045Z,102323.84
2023-04-16T08:07:27.026Z,102317.22
2023-04-16T08:12:48.943Z,102329.16
2023-04-16T08:18:15.805Z,102338.34
2023-04-16T08:23:37.658Z,102334.91
2023-04-16T08:28:59.402Z,102334.28
2023-04-16T08:34:21.316Z,102338.78
2023-04-16T08:39:43.099Z,102344.56
2023-04-16T08:45:17.776Z,102350.53
2023-04-16T08:50:41.419Z,102356.25
2023-04-16T08:56:08.883Z,102357.56
2023-04-16T09:01:30.984Z,102358.44
2023-04-16T09:06:54.109Z,102368.63
2023-04-16T09:12:16.053Z,102375.16
2023-04-16T09:17:38.359Z,102367.59
2023-04-16T09:23:00.155Z,102357.72
2023-04-16T09:28:41.147Z,102369.84
2023-04-16T09:34:08.369Z,102378.19
2023-04-16T09:39:30.152Z,102380.75
2023-04-16T09:44:52.718Z,102388.28
2023-04-16T09:50:18.108Z,102394.72
2023-04-16T09:55:40.578Z,102400.72
2023-04-16T10:01:03.479Z,102405.47
2023-04-16T10:06:27.892Z,102405.47
2023-04-16T10:11:50.071Z,102407.63
2023-04-16T10:17:12.250Z,102412.31
2023-04-16T10:22:34.934Z,102413.16
2023-04-16T10:27:57.667Z,102420.22
2023-04-16T10:33:24.352Z,102421.06
2023-04-16T10:38:52.908Z,102419.69
2023-04-16T10:44:17.992Z,102416.13
2023-04-16T10:49:40.945Z,102413.41
2023-04-16T10:55:02.738Z,102415.50
2023-04-16T11:00:24.575Z,102407.34
2023-04-16T11:05:49.415Z,102409.75
2023-04-16T11:11:11.252Z,102416.66
2023-04-16T11:16:33.372Z,102414.56
2023-04-16T11:21:56.150Z,102410.16
2023-04-16T11:27:17.921Z,102403.88
2023-04-16T11:32:40.210Z,102407.97
2023-04-16T11:38:06.785Z,102426.47
2023-04-16T11:43:28.646Z,102421.84
2023-04-16T11:48:54.171Z,102411.59
2023-04-16T11:54:22.686Z,102420.28
2023-04-16T12:00:01.473Z,102419.59
2023-04-16T12:05:35.297Z,102420.91
2023-04-16T12:10:58.307Z,102425.09
2023-04-16T12:16:21.318Z,102420.06
2023-04-16T12:21:45.165Z,102429.13
2023-04-16T12:27:07.236Z,102433.72
2023-04-16T12:32:29.059Z,102427.81
2023-04-16T12:37:50.954Z,102430.88
2023-04-16T12:43:13.368Z,102438.44
2023-04-16T12:48:35.649Z,102436.94
2023-04-16T12:53:57.716Z,102443.84
2023-04-16T12:59:19.478Z,102443.47
2023-04-16T13:04:41.352Z,102449.75
2023-04-16T13:10:03.289Z,102436.09
2023-04-16T13:15:25.092Z,102442.75
2023-04-16T13:20:46.939Z,102440.22
2023-04-16T13:26:08.761Z,102446.03
2023-04-16T13:31:30.989Z,102449.84
2023-04-16T13:36:52.809Z,102435.78
2023-04-16T13:42:14.697Z,102445.84
2023-04-16T13:47:37.081Z,102441.16
2023-04-16T13:52:58.976Z,102440.94
2023-04-16T13:58:21.167Z,102449.28
2023-04-16T14:03:43.041Z,102443.53
2023-04-16T14:09:04.905Z,102454.44
2023-04-16T14:14:26.924Z,102450.59
2023-04-16T14:19:48.961Z,102449.34
2023-04-16T14:25:10.741Z,102445.25
2023-04-16T14:30:32.672Z,102447.63
2023-04-16T14:35:55.150Z,102443.50
2023-04-16T14:41:17.106Z,102450.94
2023-04-16T14:46:38.910Z,102446.69
2023-04-16T14:52:02.830Z,102440.03
2023-04-16T14:57:24.884Z,102435.28
2023-04-16T15:02:48.536Z,102425.66
2023-04-16T15:08:10.518Z,102434.63
2023-04-16T15:13:34.315Z,102432.31
2023-04-16T15:18:56.101Z,102428.47
2023-04-16T15:24:18.034Z,102432.13
2023-04-16T15:29:39.828Z,102430.81
2023-04-16T15:35:03.511Z,102427.75
2023-04-16T15:40:25.540Z,102426.41
2023-04-16T15:45:47.367Z,102434.66
2023-04-16T15:51:09.485Z,102430.13
2023-04-16T15:56:31.821Z,102429.91
2023-04-16T16:01:53.819Z,102436.97
2023-04-16T16:07:19.998Z,102434.47
2023-04-16T16:12:42.001Z,102427.22
2023-04-16T16:18:03.962Z,102431.59
2023-04-16T16:23:26.275Z,102422.22
2023-04-16T16:28:48.287Z,102432.44
2023-04-16T16:34:17.071Z,102432.22
2023-04-16T16:39:42.114Z,102431.38
2023-04-16T16:45:06.387Z,102428.59
2023-04-16T16:50:28.394Z,102429.03
2023-04-16T16:55:50.378Z,102428.00
2023-04-16T17:01:12.305Z,102422.25
2023-04-16T17:06:34.322Z,102425.91
2023-04-16T17:11:57.155Z,102430.81
2023-04-16T17:17:19.260Z,102429.31
2023-04-16T17:22:41.345Z,102427.75
2023-04-16T17:28:03.456Z,102433.25
2023-04-16T17:33:25.341Z,102427.22
2023-04-16T17:38:47.155Z,102421.13
2023-04-16T17:44:11.589Z,102434.00
2023-04-16T17:49:33.749Z,102430.66
2023-04-16T17:55:00.719Z,102434.03
2023-04-16T18:00:22.604Z,102440.81
2023-04-16T18:05:47.414Z,102441.91
2023-04-16T18:11:09.430Z,102450.72
2023-04-16T18:16:31.592Z,102467.63
2023-04-16T18:21:53.354Z,102467.25
2023-04-16T18:27:15.322Z,102477.97
2023-04-16T18:32:39.658Z,102482.28
2023-04-16T18:38:11.659Z,102484.63
2023-04-16T18:43:33.489Z,102490.88
2023-04-16T18:48:55.388Z,102492.44
2023-04-16T18:54:17.234Z,102492.25
2023-04-16T18:59:39.027Z,102491.09
2023-04-16T19:05:01.312Z,102488.75
2023-04-16T19:10:23.106Z,102492.13
2023-04-16T19:15:44.992Z,102493.91
2023-04-16T19:21:07.453Z,102497.34
2023-04-16T19:26:29.444Z,102504.66
2023-04-16T19:31:51.584Z,102499.63
2023-04-16T19:37:13.564Z,102496.13
2023-04-16T19:42:35.687Z,102507.69
2023-04-16T19:47:57.562Z,102500.41
2023-04-16T19:53:19.352Z,102500.72
2023-04-16T19:58:41.176Z,102505.16
2023-04-16T20:04:03.120Z,102510.47
2023-04-16T20:09:25.607Z,102510.16
2023-04-16T20:14:47.724Z,102516.78
2023-04-16T20:20:11.247Z,102516.31
2023-04-16T20:25:33.076Z,102518.13
2023-04-16T20:30:55.135Z,102520.22
2023-04-16T20:36:16.912Z,102525.69
2023-04-16T20:41:44.038Z,102508.03
2023-04-16T20:47:13.261Z,102512.44
2023-04-16T20:52:35.059Z,102510.41
2023-04-16T20:57:56.913Z,102497.81
2023-04-16T21:03:19.964Z,102496.38
2023-04-16T21:08:41.780Z,102491.31
2023-04-16T21:14:03.931Z,102495.69
2023-04-16T21:19:25.794Z,102494.03
2023-04-16T21:24:47.574Z,102496.25
2023-04-16T21:30:09.884Z,102487.94
2023-04-16T21:35:33.366Z,102495.94
2023-04-16T21:40:56.044Z,102490.41
2023-04-16T21:46:17.945Z,102502.41
2023-04-16T21:51:40.686Z,102497.06
2023-04-16T21:57:02.846Z,102506.09
2023-04-16T22:02:24.897Z,102496.94
2023-04-16T22:07:47.020Z,102488.38
2023-04-16T22:13:12.897Z,102487.34
2023-04-16T22:18:34.712Z,102487.78
2023-04-16T22:23:56.499Z,102489.50
2023-04-16T22:29:18.343Z,102488.28
2023-04-16T22:34:40.214Z,102482.50
2023-04-16T22:40:02.181Z,102484.00
2023-04-16T22:45:24.030Z,102480.81
2023-04-16T22:50:48.793Z,102490.44
2023-04-16T22:56:11.049Z,102478.06
2023-04-16T23:01:34.397Z,102482.38
2023-04-16T23:06:56.505Z,102484.50
2023-04-16T23:12:18.348Z,102481.28
2023-04-16T23:17:40.430Z,102489.16
2023-04-16T23:23:02.205Z,102492.41
2023-04-16T23:28:23.946Z,102489.19
2023-04-16T23:33:45.729Z,102487.72
2023-04-16T23:39:07.510Z,102489.00
2023-04-16T23:44:29.286Z,102490.28
2023-04-16T23:49:51.032Z,102486.88
2023-04-16T23:55:13.139Z,102487.31
